createdAt,value
2022-12-01T17:02:10.694Z,152.60
2022-12-01T17:03:42.369Z,134.75
2022-12-01T17:05:14.066Z,161.75
2022-12-01T17:06:46.459Z,135.75
2022-12-01T17:08:18.343Z,133.00
2022-12-01T17:09:49.970Z,125.00
2022-12-01T17:11:21.602Z,124.00
2022-12-01T17:12:53.319Z,111.50
2022-12-01T17:14:25.295Z,108.75
2022-12-01T17:16:02.266Z,105.20
2022-12-01T17:17:34.317Z,98.00
2022-12-01T17:19:06.032Z,102.00
2022-12-01T17:20:37.823Z,398.75
2022-12-01T17:22:09.465Z,339.00
2022-12-01T17:23:41.239Z,252.50
2022-12-01T17:25:12.951Z,238.50
2022-12-01T17:26:45.061Z,223.00
2022-12-01T17:28:17.741Z,234.00
2022-12-01T17:29:49.518Z,218.00
2022-12-01T17:31:21.556Z,224.00
2022-12-01T17:32:53.425Z,203.67
2022-12-01T17:34:25.198Z,200.00
2022-12-01T17:36:02.520Z,207.00
2022-12-01T17:37:36.816Z,202.33
2022-12-01T17:39:08.505Z,207.00
2022-12-01T17:40:40.190Z,193.33
2022-12-01T17:42:11.855Z,194.33
2022-12-01T17:43:43.714Z,195.00
2022-12-01T17:45:15.603Z,184.00
2022-12-01T17:46:47.331Z,183.00
2022-12-01T17:48:21.487Z,172.00
2022-12-01T17:49:53.552Z,179.00
2022-12-01T17:51:25.199Z,171.25
2022-12-01T17:52:56.859Z,172.00
2022-12-01T17:54:28.586Z,158.00
2022-12-01T17:56:00.258Z,169.50
2022-12-01T17:57:31.952Z,165.75
2022-12-01T17:59:03.722Z,180.75
2022-12-01T18:00:35.421Z,188.50
2022-12-01T18:02:07.363Z,182.25
2022-12-01T18:03:39.118Z,184.00
2022-12-01T18:05:11.582Z,177.50
2022-12-01T18:06:43.456Z,175.25
2022-12-01T18:08:15.173Z,194.50
2022-12-01T18:09:47.017Z,174.25
2022-12-01T18:11:18.811Z,180.25
2022-12-01T18:12:50.617Z,175.50
2022-12-01T18:14:23.120Z,176.50
2022-12-01T18:15:54.844Z,164.75
2022-12-01T18:17:26.699Z,175.75
2022-12-01T18:19:00.561Z,165.50
2022-12-01T18:20:32.262Z,173.50
2022-12-01T18:22:04.205Z,182.75
2022-12-01T18:23:36.805Z,176.00
2022-12-01T18:25:09.548Z,175.25
2022-12-01T18:26:41.604Z,190.25
2022-12-01T18:28:13.892Z,178.25
2022-12-01T18:29:45.770Z,181.50
2022-12-01T18:31:17.484Z,167.25
2022-12-01T18:32:49.577Z,179.25
2022-12-01T18:34:21.308Z,166.25
2022-12-01T18:35:53.006Z,172.00
2022-12-01T18:37:24.684Z,223.67
2022-12-01T18:38:57.454Z,178.00
2022-12-01T18:40:29.125Z,161.25
2022-12-01T18:42:01.059Z,162.25
2022-12-01T18:43:32.791Z,171.75
2022-12-01T18:45:04.711Z,173.25
2022-12-01T18:46:37.103Z,173.50
2022-12-01T18:48:08.931Z,175.00
2022-12-01T18:49:40.581Z,170.25
2022-12-01T18:51:12.282Z,175.00
2022-12-01T18:52:44.045Z,170.25
2022-12-01T18:54:16.104Z,170.75
2022-12-01T18:55:47.776Z,176.25
2022-12-01T18:57:21.183Z,166.25
2022-12-01T18:58:56.623Z,164.00
2022-12-01T19:00:28.373Z,163.50
2022-12-01T19:02:00.636Z,164.75
2022-12-01T19:03:32.501Z,162.75
2022-12-01T19:05:04.492Z,146.00
2022-12-01T19:06:37.633Z,153.00
2022-12-01T19:08:09.335Z,169.50
2022-12-01T19:09:42.025Z,171.00
2022-12-01T19:11:14.456Z,147.25
2022-12-01T19:12:46.886Z,351.50
2022-12-01T19:14:18.808Z,211.00
2022-12-01T19:15:50.992Z,205.67
2022-12-01T19:17:23.230Z,181.25
2022-12-01T19:18:54.911Z,184.00
2022-12-01T19:20:26.624Z,165.00
2022-12-01T19:21:58.298Z,172.25
2022-12-01T19:23:30.007Z,168.75
2022-12-01T19:25:01.756Z,174.00
2022-12-01T19:26:33.467Z,173.75
2022-12-01T19:28:05.214Z,168.75
2022-12-01T19:29:36.905Z,169.25
2022-12-01T19:31:11.234Z,177.25
2022-12-01T19:32:43.572Z,173.00
2022-12-01T19:34:15.236Z,176.75
2022-12-01T19:35:47.039Z,177.25
2022-12-01T19:37:19.983Z,168.00
2022-12-01T19:38:51.949Z,161.75
2022-12-01T19:40:23.720Z,162.25
2022-12-01T19:41:56.902Z,286.25
2022-12-01T19:43:28.659Z,242.50
2022-12-01T19:45:01.185Z,185.67
2022-12-01T19:46:33.010Z,206.67
2022-12-01T19:48:05.301Z,191.67
2022-12-01T19:49:37.307Z,180.25
2022-12-01T19:51:19.619Z,171.75
2022-12-01T19:52:51.369Z,173.50
2022-12-01T19:54:23.159Z,159.50
2022-12-01T19:55:54.928Z,169.25
2022-12-01T19:57:28.060Z,163.75
2022-12-01T19:58:59.767Z,145.00
2022-12-01T20:00:31.757Z,164.50
2022-12-01T20:02:03.590Z,164.75
2022-12-01T20:03:35.531Z,177.75
2022-12-01T20:05:07.686Z,169.75
2022-12-01T20:06:39.468Z,180.00
2022-12-01T20:08:13.924Z,169.50
2022-12-01T20:09:49.788Z,167.00
2022-12-01T20:11:22.006Z,152.25
2022-12-01T20:12:53.793Z,159.25
2022-12-01T20:14:25.534Z,155.00
2022-12-01T20:16:08.659Z,161.50
2022-12-01T20:17:40.430Z,150.25
2022-12-01T20:19:12.313Z,145.50
2022-12-01T20:20:43.995Z,144.75
2022-12-01T20:22:15.721Z,157.50
2022-12-01T20:23:51.918Z,157.75
2022-12-01T20:25:23.659Z,144.50
2022-12-01T20:26:56.971Z,161.00
2022-12-01T20:28:28.857Z,164.00
2022-12-01T20:30:00.512Z,163.00
2022-12-01T20:31:32.627Z,158.00
2022-12-01T20:33:04.334Z,154.00
2022-12-01T20:34:36.158Z,141.00
2022-12-01T20:36:08.034Z,139.25
2022-12-01T20:37:39.787Z,142.00
2022-12-01T20:39:11.645Z,141.75
2022-12-01T20:40:43.356Z,125.50
2022-12-01T20:42:15.184Z,138.75
2022-12-01T20:43:46.826Z,132.25
2022-12-01T20:45:18.577Z,125.25
2022-12-01T20:46:50.300Z,129.75
2022-12-01T20:48:21.948Z,131.00
2022-12-01T20:49:58.167Z,140.25
2022-12-01T20:51:33.241Z,161.00
2022-12-01T20:53:04.921Z,164.50
2022-12-01T20:54:36.535Z,151.75
2022-12-01T20:56:10.987Z,148.75
2022-12-01T20:57:42.753Z,155.00
2022-12-01T20:59:14.447Z,137.00
2022-12-01T21:00:46.207Z,144.00
2022-12-01T21:02:18.026Z,145.50
2022-12-01T21:03:50.937Z,140.75
2022-12-01T21:05:24.543Z,150.50
2022-12-01T21:06:57.112Z,130.75
2022-12-01T21:08:28.883Z,139.75
2022-12-01T21:10:00.835Z,131.75
2022-12-01T21:11:59.780Z,130.50
2022-12-01T21:13:43.537Z,132.50
2022-12-01T21:15:29.496Z,122.25
2022-12-01T21:17:23.666Z,122.75
2022-12-01T21:18:56.099Z,348.75
2022-12-01T21:20:32.849Z,216.33
2022-12-01T21:22:10.524Z,213.67
2022-12-01T21:23:42.185Z,184.50
2022-12-01T21:25:18.814Z,165.00
2022-12-01T21:27:18.384Z,156.00
2022-12-01T21:28:50.041Z,155.75
2022-12-01T21:30:24.915Z,146.25
2022-12-01T21:31:59.217Z,145.00
2022-12-01T21:33:35.088Z,132.50
2022-12-01T21:35:16.883Z,116.75
2022-12-01T21:36:49.388Z,124.75
2022-12-01T21:38:22.306Z,124.75
2022-12-01T21:39:55.957Z,114.25
2022-12-01T21:41:28.711Z,116.75
2022-12-01T21:43:06.204Z,112.25
2022-12-01T21:44:38.020Z,106.00
2022-12-01T21:46:16.376Z,101.80
2022-12-01T21:47:48.179Z,119.25
2022-12-01T21:49:21.466Z,112.50
2022-12-01T21:50:58.475Z,122.50
2022-12-01T21:52:36.807Z,112.25
2022-12-01T21:54:12.464Z,116.50
2022-12-01T21:55:45.391Z,123.25
2022-12-01T21:57:43.021Z,112.25
2022-12-01T21:59:24.142Z,114.00
2022-12-01T22:00:57.442Z,102.50
2022-12-01T22:02:50.306Z,113.75
2022-12-01T22:04:31.278Z,114.50
2022-12-01T22:06:29.212Z,119.50
2022-12-01T22:08:27.122Z,125.00
2022-12-01T22:09:58.816Z,132.00
2022-12-01T22:11:31.031Z,115.50
2022-12-01T22:13:02.691Z,121.75
2022-12-01T22:14:35.055Z,134.50
2022-12-01T22:16:29.371Z,122.75
2022-12-01T22:18:01.065Z,125.75
2022-12-01T22:19:34.227Z,115.00
2022-12-01T22:21:47.805Z,115.75
2022-12-01T22:23:20.794Z,122.75
2022-12-01T22:24:59.751Z,111.25
2022-12-01T22:26:31.550Z,101.50
2022-12-01T22:28:03.377Z,114.25
2022-12-01T22:29:43.839Z,110.50
2022-12-01T22:31:15.853Z,105.00
2022-12-01T22:32:56.866Z,109.20
2022-12-01T22:34:28.533Z,94.60
2022-12-01T22:36:00.257Z,94.80
2022-12-01T22:37:38.283Z,93.25
2022-12-01T22:39:30.799Z,98.50
2022-12-01T22:41:03.466Z,86.75
2022-12-01T22:42:35.430Z,91.00
2022-12-01T22:44:07.395Z,93.25
2022-12-01T22:45:39.074Z,88.50
2022-12-01T22:47:10.816Z,88.75
2022-12-01T22:48:44.654Z,91.75
2022-12-01T22:50:31.812Z,86.75
2022-12-01T22:52:19.438Z,81.25
2022-12-01T22:53:53.780Z,72.00
2022-12-01T22:55:25.436Z,64.25
2022-12-01T22:57:33.161Z,79.50
2022-12-01T22:59:22.269Z,95.25
2022-12-01T23:00:54.108Z,95.50
2022-12-01T23:02:34.955Z,94.80
2022-12-01T23:04:35.578Z,99.00
2022-12-01T23:06:27.676Z,95.60
2022-12-01T23:07:59.541Z,106.00
2022-12-01T23:09:34.363Z,98.40
2022-12-01T23:11:06.876Z,104.60
2022-12-01T23:12:38.656Z,92.25
2022-12-01T23:14:15.608Z,89.00
2022-12-01T23:15:48.763Z,95.25
2022-12-01T23:17:27.507Z,107.60
2022-12-01T23:18:59.166Z,106.20
2022-12-01T23:20:32.965Z,109.50
2022-12-01T23:22:04.578Z,113.60
2022-12-01T23:23:36.727Z,101.60
2022-12-01T23:25:16.088Z,112.25
2022-12-01T23:26:47.758Z,106.75
2022-12-01T23:28:19.663Z,115.25
2022-12-01T23:29:51.367Z,108.25
2022-12-01T23:31:23.260Z,107.25
2022-12-01T23:33:16.683Z,108.20
2022-12-01T23:34:48.647Z,98.80
